sensor_id;sensor_type;location;lat;lon;timestamp;P1;durP1;ratioP1;P2;durP2;ratioP2
71046;SDS011;58703;48.978;8.982;2022-12-22T00:02:11;24.70;;;15.67;;
71046;SDS011;58703;48.978;8.982;2022-12-22T00:05:06;15.82;;;10.82;;
71046;SDS011;58703;48.978;8.982;2022-12-22T00:07:56;20.15;;;13.40;;
71046;SDS011;58703;48.978;8.982;2022-12-22T00:10:40;23.48;;;12.95;;
71046;SDS011;58703;48.978;8.982;2022-12-22T00:13:24;15.30;;;9.52;;
71046;SDS011;58703;48.978;8.982;2022-12-22T00:16:09;16.97;;;8.80;;
71046;SDS011;58703;48.978;8.982;2022-12-22T00:18:53;11.63;;;8.30;;
71046;SDS011;58703;48.978;8.982;2022-12-22T00:21:37;13.48;;;6.88;;
71046;SDS011;58703;48.978;8.982;2022-12-22T00:24:21;14.35;;;7.43;;
71046;SDS011;58703;48.978;8.982;2022-12-22T00:27:07;13.70;;;6.38;;
71046;SDS011;58703;48.978;8.982;2022-12-22T00:29:56;13.63;;;6.93;;
71046;SDS011;58703;48.978;8.982;2022-12-22T00:32:40;10.18;;;6.40;;
71046;SDS011;58703;48.978;8.982;2022-12-22T00:35:25;12.13;;;5.60;;
71046;SDS011;58703;48.978;8.982;2022-12-22T00:38:17;9.38;;;5.40;;
71046;SDS011;58703;48.978;8.982;2022-12-22T00:41:04;9.07;;;4.72;;
71046;SDS011;58703;48.978;8.982;2022-12-22T00:43:49;6.63;;;3.90;;
71046;SDS011;58703;48.978;8.982;2022-12-22T00:46:34;3.53;;;1.70;;
71046;SDS011;58703;48.978;8.982;2022-12-22T00:49:22;1.88;;;0.85;;
71046;SDS011;58703;48.978;8.982;2022-12-22T00:52:09;1.77;;;0.35;;
71046;SDS011;58703;48.978;8.982;2022-12-22T00:54:55;4.68;;;0.93;;
71046;SDS011;58703;48.978;8.982;2022-12-22T00:57:40;1.90;;;0.63;;
71046;SDS011;58703;48.978;8.982;2022-12-22T01:00:26;2.33;;;0.65;;
71046;SDS011;58703;48.978;8.982;2022-12-22T01:03:12;2.55;;;0.52;;
71046;SDS011;58703;48.978;8.982;2022-12-22T01:05:57;1.35;;;0.45;;
71046;SDS011;58703;48.978;8.982;2022-12-22T01:08:44;1.95;;;0.70;;
71046;SDS011;58703;48.978;8.982;2022-12-22T01:11:31;1.17;;;0.40;;
71046;SDS011;58703;48.978;8.982;2022-12-22T01:14:16;0.50;;;0.38;;
71046;SDS011;58703;48.978;8.982;2022-12-22T01:17:01;0.38;;;0.30;;
71046;SDS011;58703;48.978;8.982;2022-12-22T01:19:45;3.70;;;0.65;;
71046;SDS011;58703;48.978;8.982;2022-12-22T01:22:30;1.48;;;0.35;;
71046;SDS011;58703;48.978;8.982;2022-12-22T01:25:16;0.50;;;0.40;;
71046;SDS011;58703;48.978;8.982;2022-12-22T01:28:01;1.05;;;0.40;;
71046;SDS011;58703;48.978;8.982;2022-12-22T01:30:47;0.80;;;0.60;;
71046;SDS011;58703;48.978;8.982;2022-12-22T01:33:31;0.40;;;0.40;;
71046;SDS011;58703;48.978;8.982;2022-12-22T01:36:15;0.40;;;0.40;;
71046;SDS011;58703;48.978;8.982;2022-12-22T01:39:01;0.97;;;0.40;;
71046;SDS011;58703;48.978;8.982;2022-12-22T01:41:45;2.30;;;0.50;;
71046;SDS011;58703;48.978;8.982;2022-12-22T01:44:31;1.10;;;0.40;;
71046;SDS011;58703;48.978;8.982;2022-12-22T01:47:29;0.50;;;0.40;;
71046;SDS011;58703;48.978;8.982;2022-12-22T01:50:16;1.20;;;0.70;;
71046;SDS011;58703;48.978;8.982;2022-12-22T01:53:04;1.57;;;0.40;;
71046;SDS011;58703;48.978;8.982;2022-12-22T01:55:52;2.08;;;0.50;;
71046;SDS011;58703;48.978;8.982;2022-12-22T01:58:39;1.48;;;0.50;;
71046;SDS011;58703;48.978;8.982;2022-12-22T02:01:27;0.65;;;0.40;;
71046;SDS011;58703;48.978;8.982;2022-12-22T02:04:13;0.93;;;0.30;;
71046;SDS011;58703;48.978;8.982;2022-12-22T02:07:02;0.50;;;0.50;;
71046;SDS011;58703;48.978;8.982;2022-12-22T02:10:02;0.50;;;0.40;;
71046;SDS011;58703;48.978;8.982;2022-12-22T02:23:06;1.63;;;0.57;;
71046;SDS011;58703;48.978;8.982;2022-12-22T02:29:03;1.23;;;0.55;;
71046;SDS011;58703;48.978;8.982;2022-12-22T02:31:48;0.45;;;0.43;;
71046;SDS011;58703;48.978;8.982;2022-12-22T02:34:32;0.40;;;0.40;;
71046;SDS011;58703;48.978;8.982;2022-12-22T02:37:19;0.50;;;0.30;;
71046;SDS011;58703;48.978;8.982;2022-12-22T02:40:19;0.43;;;0.40;;
71046;SDS011;58703;48.978;8.982;2022-12-22T02:43:24;1.20;;;0.50;;
71046;SDS011;58703;48.978;8.982;2022-12-22T02:46:20;2.95;;;0.90;;
71046;SDS011;58703;48.978;8.982;2022-12-22T02:49:14;6.47;;;3.20;;
71046;SDS011;58703;48.978;8.982;2022-12-22T02:52:04;14.77;;;6.70;;
71046;SDS011;58703;48.978;8.982;2022-12-22T02:54:56;4.93;;;1.73;;
71046;SDS011;58703;48.978;8.982;2022-12-22T02:57:42;1.88;;;1.50;;
71046;SDS011;58703;48.978;8.982;2022-12-22T03:00:26;2.33;;;1.50;;
71046;SDS011;58703;48.978;8.982;2022-12-22T03:03:10;1.63;;;1.20;;
71046;SDS011;58703;48.978;8.982;2022-12-22T03:05:54;1.33;;;0.80;;
71046;SDS011;58703;48.978;8.982;2022-12-22T03:08:38;1.25;;;1.10;;
71046;SDS011;58703;48.978;8.982;2022-12-22T03:11:22;1.92;;;0.85;;
71046;SDS011;58703;48.978;8.982;2022-12-22T03:14:06;0.60;;;0.60;;
71046;SDS011;58703;48.978;8.982;2022-12-22T03:16:51;1.38;;;0.73;;
71046;SDS011;58703;48.978;8.982;2022-12-22T03:19:36;0.53;;;0.43;;
71046;SDS011;58703;48.978;8.982;2022-12-22T03:22:20;2.03;;;0.50;;
71046;SDS011;58703;48.978;8.982;2022-12-22T03:25:04;0.82;;;0.80;;
71046;SDS011;58703;48.978;8.982;2022-12-22T03:27:49;1.30;;;0.73;;
71046;SDS011;58703;48.978;8.982;2022-12-22T03:30:16;0.57;;;0.30;;
71046;SDS011;58703;48.978;8.982;2022-12-22T03:32:41;1.00;;;0.50;;
71046;SDS011;58703;48.978;8.982;2022-12-22T03:35:07;1.47;;;0.40;;
71046;SDS011;58703;48.978;8.982;2022-12-22T03:37:32;0.47;;;0.47;;
71046;SDS011;58703;48.978;8.982;2022-12-22T03:39:58;0.87;;;0.20;;
71046;SDS011;58703;48.978;8.982;2022-12-22T03:42:23;0.40;;;0.30;;
71046;SDS011;58703;48.978;8.982;2022-12-22T03:45:09;0.45;;;0.30;;
71046;SDS011;58703;48.978;8.982;2022-12-22T03:47:53;0.52;;;0.50;;
71046;SDS011;58703;48.978;8.982;2022-12-22T03:50:20;1.43;;;0.77;;
71046;SDS011;58703;48.978;8.982;2022-12-22T03:52:46;1.30;;;0.25;;
71046;SDS011;58703;48.978;8.982;2022-12-22T03:55:12;2.40;;;0.50;;
71046;SDS011;58703;48.978;8.982;2022-12-22T03:57:37;1.60;;;0.40;;
71046;SDS011;58703;48.978;8.982;2022-12-22T04:00:03;2.93;;;0.43;;
71046;SDS011;58703;48.978;8.982;2022-12-22T04:02:30;1.48;;;0.40;;
71046;SDS011;58703;48.978;8.982;2022-12-22T04:04:56;1.40;;;0.88;;
71046;SDS011;58703;48.978;8.982;2022-12-22T04:07:21;0.80;;;0.33;;
71046;SDS011;58703;48.978;8.982;2022-12-22T04:09:47;0.63;;;0.50;;
71046;SDS011;58703;48.978;8.982;2022-12-22T04:12:31;0.60;;;0.50;;
71046;SDS011;58703;48.978;8.982;2022-12-22T04:15:15;1.65;;;0.63;;
71046;SDS011;58703;48.978;8.982;2022-12-22T04:17:41;1.10;;;0.70;;
71046;SDS011;58703;48.978;8.982;2022-12-22T04:20:07;1.42;;;0.75;;
71046;SDS011;58703;48.978;8.982;2022-12-22T04:22:34;1.40;;;0.68;;
71046;SDS011;58703;48.978;8.982;2022-12-22T04:24:59;2.05;;;0.73;;
71046;SDS011;58703;48.978;8.982;2022-12-22T04:27:25;3.63;;;1.37;;
71046;SDS011;58703;48.978;8.982;2022-12-22T04:29:50;1.13;;;0.57;;
71046;SDS011;58703;48.978;8.982;2022-12-22T04:32:17;2.10;;;0.67;;
71046;SDS011;58703;48.978;8.982;2022-12-22T04:34:42;0.57;;;0.57;;
71046;SDS011;58703;48.978;8.982;2022-12-22T04:37:08;0.77;;;0.77;;
71046;SDS011;58703;48.978;8.982;2022-12-22T04:39:33;1.65;;;0.68;;
71046;SDS011;58703;48.978;8.982;2022-12-22T04:41:59;0.80;;;0.80;;
71046;SDS011;58703;48.978;8.982;2022-12-22T04:44:24;1.03;;;0.93;;
71046;SDS011;58703;48.978;8.982;2022-12-22T04:46:50;2.22;;;0.90;;
71046;SDS011;58703;48.978;8.982;2022-12-22T04:49:16;0.90;;;0.70;;
71046;SDS011;58703;48.978;8.982;2022-12-22T04:51:42;2.40;;;0.50;;
71046;SDS011;58703;48.978;8.982;2022-12-22T04:54:07;2.77;;;1.10;;
71046;SDS011;58703;48.978;8.982;2022-12-22T04:56:33;1.17;;;0.50;;
71046;SDS011;58703;48.978;8.982;2022-12-22T04:58:58;2.03;;;0.80;;
71046;SDS011;58703;48.978;8.982;2022-12-22T05:01:24;3.30;;;1.40;;
71046;SDS011;58703;48.978;8.982;2022-12-22T05:03:49;0.97;;;0.87;;
71046;SDS011;58703;48.978;8.982;2022-12-22T05:06:16;2.97;;;0.75;;
71046;SDS011;58703;48.978;8.982;2022-12-22T05:08:42;3.13;;;0.70;;
71046;SDS011;58703;48.978;8.982;2022-12-22T05:11:07;2.33;;;0.80;;
71046;SDS011;58703;48.978;8.982;2022-12-22T05:13:33;1.87;;;0.70;;
71046;SDS011;58703;48.978;8.982;2022-12-22T05:16:05;4.00;;;0.67;;
71046;SDS011;58703;48.978;8.982;2022-12-22T05:18:36;1.75;;;0.52;;
71046;SDS011;58703;48.978;8.982;2022-12-22T05:21:08;2.28;;;0.90;;
71046;SDS011;58703;48.978;8.982;2022-12-22T05:23:35;1.17;;;0.60;;
71046;SDS011;58703;48.978;8.982;2022-12-22T05:26:01;2.37;;;0.70;;
71046;SDS011;58703;48.978;8.982;2022-12-22T05:28:26;1.85;;;0.70;;
71046;SDS011;58703;48.978;8.982;2022-12-22T05:30:52;0.83;;;0.20;;
71046;SDS011;58703;48.978;8.982;2022-12-22T05:33:18;2.60;;;0.38;;
71046;SDS011;58703;48.978;8.982;2022-12-22T05:35:45;1.52;;;0.30;;
71046;SDS011;58703;48.978;8.982;2022-12-22T05:38:11;4.05;;;0.50;;
71046;SDS011;58703;48.978;8.982;2022-12-22T05:40:36;2.03;;;0.60;;
71046;SDS011;58703;48.978;8.982;2022-12-22T05:43:02;1.70;;;0.47;;
71046;SDS011;58703;48.978;8.982;2022-12-22T05:45:28;1.37;;;0.30;;
71046;SDS011;58703;48.978;8.982;2022-12-22T05:47:54;0.40;;;0.30;;
71046;SDS011;58703;48.978;8.982;2022-12-22T05:50:21;2.90;;;0.47;;
71046;SDS011;58703;48.978;8.982;2022-12-22T05:52:49;13.90;;;6.13;;
71046;SDS011;58703;48.978;8.982;2022-12-22T05:55:14;70.73;;;26.13;;
71046;SDS011;58703;48.978;8.982;2022-12-22T05:57:40;43.97;;;18.27;;
71046;SDS011;58703;48.978;8.982;2022-12-22T06:00:09;150.23;;;64.18;;
71046;SDS011;58703;48.978;8.982;2022-12-22T06:02:37;68.45;;;28.58;;
71046;SDS011;58703;48.978;8.982;2022-12-22T06:05:03;10.13;;;3.42;;
71046;SDS011;58703;48.978;8.982;2022-12-22T06:07:30;38.47;;;16.00;;
71046;SDS011;58703;48.978;8.982;2022-12-22T06:09:55;13.82;;;6.00;;
71046;SDS011;58703;48.978;8.982;2022-12-22T06:12:22;7.77;;;3.07;;
71046;SDS011;58703;48.978;8.982;2022-12-22T06:14:47;6.45;;;2.78;;
71046;SDS011;58703;48.978;8.982;2022-12-22T06:17:13;1.20;;;1.10;;
71046;SDS011;58703;48.978;8.982;2022-12-22T06:19:38;1.95;;;0.55;;
71046;SDS011;58703;48.978;8.982;2022-12-22T06:22:04;3.00;;;1.50;;
71046;SDS011;58703;48.978;8.982;2022-12-22T06:24:30;6.80;;;2.37;;
71046;SDS011;58703;48.978;8.982;2022-12-22T06:26:56;10.05;;;3.42;;
71046;SDS011;58703;48.978;8.982;2022-12-22T06:29:22;9.60;;;2.80;;
71046;SDS011;58703;48.978;8.982;2022-12-22T06:31:47;6.13;;;2.75;;
71046;SDS011;58703;48.978;8.982;2022-12-22T06:34:13;5.67;;;3.20;;
71046;SDS011;58703;48.978;8.982;2022-12-22T06:36:42;6.15;;;2.78;;
71046;SDS011;58703;48.978;8.982;2022-12-22T06:39:10;8.10;;;2.90;;
71046;SDS011;58703;48.978;8.982;2022-12-22T06:41:36;3.90;;;1.70;;
71046;SDS011;58703;48.978;8.982;2022-12-22T06:44:20;3.20;;;1.88;;
71046;SDS011;58703;48.978;8.982;2022-12-22T06:46:46;3.23;;;1.17;;
71046;SDS011;58703;48.978;8.982;2022-12-22T06:49:11;3.37;;;1.10;;
71046;SDS011;58703;48.978;8.982;2022-12-22T06:51:37;3.05;;;0.95;;
71046;SDS011;58703;48.978;8.982;2022-12-22T06:54:02;2.50;;;0.60;;
71046;SDS011;58703;48.978;8.982;2022-12-22T06:56:30;3.33;;;0.70;;
71046;SDS011;58703;48.978;8.982;2022-12-22T06:58:55;3.03;;;0.80;;
71046;SDS011;58703;48.978;8.982;2022-12-22T07:01:21;2.50;;;0.30;;
71046;SDS011;58703;48.978;8.982;2022-12-22T07:03:46;2.43;;;0.80;;
71046;SDS011;58703;48.978;8.982;2022-12-22T07:06:12;3.87;;;0.67;;
71046;SDS011;58703;48.978;8.982;2022-12-22T07:08:37;4.75;;;0.32;;
71046;SDS011;58703;48.978;8.982;2022-12-22T07:11:04;1.90;;;0.30;;
71046;SDS011;58703;48.978;8.982;2022-12-22T07:13:31;1.65;;;0.38;;
71046;SDS011;58703;48.978;8.982;2022-12-22T07:16:00;1.88;;;0.55;;
71046;SDS011;58703;48.978;8.982;2022-12-22T07:18:30;5.43;;;0.70;;
71046;SDS011;58703;48.978;8.982;2022-12-22T07:20:58;3.08;;;0.60;;
71046;SDS011;58703;48.978;8.982;2022-12-22T07:23:24;3.72;;;0.40;;
71046;SDS011;58703;48.978;8.982;2022-12-22T07:25:51;4.40;;;0.60;;
71046;SDS011;58703;48.978;8.982;2022-12-22T07:28:18;5.23;;;0.40;;
71046;SDS011;58703;48.978;8.982;2022-12-22T07:30:44;4.90;;;0.60;;
71046;SDS011;58703;48.978;8.982;2022-12-22T07:33:09;4.32;;;0.75;;
71046;SDS011;58703;48.978;8.982;2022-12-22T07:35:35;4.90;;;0.60;;
71046;SDS011;58703;48.978;8.982;2022-12-22T07:38:01;6.18;;;1.10;;
71046;SDS011;58703;48.978;8.982;2022-12-22T07:40:26;5.77;;;0.60;;
71046;SDS011;58703;48.978;8.982;2022-12-22T07:42:57;5.20;;;1.05;;
71046;SDS011;58703;48.978;8.982;2022-12-22T07:45:24;4.72;;;2.08;;
71046;SDS011;58703;48.978;8.982;2022-12-22T07:47:51;6.13;;;4.25;;
71046;SDS011;58703;48.978;8.982;2022-12-22T07:50:22;6.57;;;1.17;;
71046;SDS011;58703;48.978;8.982;2022-12-22T07:52:57;5.32;;;1.00;;
71046;SDS011;58703;48.978;8.982;2022-12-22T07:55:25;5.00;;;0.95;;
71046;SDS011;58703;48.978;8.982;2022-12-22T07:57:53;7.15;;;1.45;;
71046;SDS011;58703;48.978;8.982;2022-12-22T08:00:19;5.55;;;1.05;;
71046;SDS011;58703;48.978;8.982;2022-12-22T08:02:49;7.70;;;1.20;;
71046;SDS011;58703;48.978;8.982;2022-12-22T08:05:16;5.43;;;1.20;;
71046;SDS011;58703;48.978;8.982;2022-12-22T08:07:42;4.05;;;1.02;;
71046;SDS011;58703;48.978;8.982;2022-12-22T08:10:08;6.10;;;1.10;;
71046;SDS011;58703;48.978;8.982;2022-12-22T08:12:34;5.05;;;0.98;;
71046;SDS011;58703;48.978;8.982;2022-12-22T08:15:00;5.18;;;0.93;;
71046;SDS011;58703;48.978;8.982;2022-12-22T08:17:26;6.93;;;1.07;;
71046;SDS011;58703;48.978;8.982;2022-12-22T08:19:53;7.85;;;1.00;;
71046;SDS011;58703;48.978;8.982;2022-12-22T08:22:19;6.82;;;1.27;;
71046;SDS011;58703;48.978;8.982;2022-12-22T08:24:51;5.43;;;1.17;;
71046;SDS011;58703;48.978;8.982;2022-12-22T08:27:20;4.40;;;1.17;;
71046;SDS011;58703;48.978;8.982;2022-12-22T08:30:07;6.10;;;0.73;;
71046;SDS011;58703;48.978;8.982;2022-12-22T08:32:35;4.13;;;0.77;;
71046;SDS011;58703;48.978;8.982;2022-12-22T08:35:02;6.13;;;0.80;;
71046;SDS011;58703;48.978;8.982;2022-12-22T08:37:32;8.57;;;0.88;;
71046;SDS011;58703;48.978;8.982;2022-12-22T08:40:12;6.70;;;0.93;;
71046;SDS011;58703;48.978;8.982;2022-12-22T08:42:40;6.68;;;0.80;;
71046;SDS011;58703;48.978;8.982;2022-12-22T08:45:07;2.58;;;1.02;;
71046;SDS011;58703;48.978;8.982;2022-12-22T08:47:35;4.80;;;0.73;;
71046;SDS011;58703;48.978;8.982;2022-12-22T08:50:01;3.50;;;0.60;;
71046;SDS011;58703;48.978;8.982;2022-12-22T08:52:28;4.85;;;0.65;;
71046;SDS011;58703;48.978;8.982;2022-12-22T08:54:54;3.20;;;0.40;;
71046;SDS011;58703;48.978;8.982;2022-12-22T08:57:20;2.43;;;0.57;;
71046;SDS011;58703;48.978;8.982;2022-12-22T08:59:46;4.63;;;0.98;;
71046;SDS011;58703;48.978;8.982;2022-12-22T09:02:12;6.03;;;0.85;;
71046;SDS011;58703;48.978;8.982;2022-12-22T09:04:38;9.80;;;1.30;;
71046;SDS011;58703;48.978;8.982;2022-12-22T09:07:03;6.65;;;1.00;;
71046;SDS011;58703;48.978;8.982;2022-12-22T09:09:30;4.73;;;0.90;;
71046;SDS011;58703;48.978;8.982;2022-12-22T09:11:57;4.03;;;0.70;;
71046;SDS011;58703;48.978;8.982;2022-12-22T09:14:23;5.85;;;1.25;;
71046;SDS011;58703;48.978;8.982;2022-12-22T09:16:49;5.87;;;0.90;;
71046;SDS011;58703;48.978;8.982;2022-12-22T09:19:15;8.00;;;1.10;;
71046;SDS011;58703;48.978;8.982;2022-12-22T09:21:41;3.95;;;0.88;;
71046;SDS011;58703;48.978;8.982;2022-12-22T09:24:06;4.40;;;0.80;;
71046;SDS011;58703;48.978;8.982;2022-12-22T09:26:33;4.18;;;0.88;;
71046;SDS011;58703;48.978;8.982;2022-12-22T09:28:58;5.65;;;0.70;;
71046;SDS011;58703;48.978;8.982;2022-12-22T09:31:25;4.37;;;0.77;;
71046;SDS011;58703;48.978;8.982;2022-12-22T09:33:51;7.47;;;0.90;;
71046;SDS011;58703;48.978;8.982;2022-12-22T09:36:18;5.68;;;1.10;;
71046;SDS011;58703;48.978;8.982;2022-12-22T09:38:46;6.13;;;1.00;;
71046;SDS011;58703;48.978;8.982;2022-12-22T09:41:15;4.43;;;0.52;;
71046;SDS011;58703;48.978;8.982;2022-12-22T09:43:44;3.40;;;0.70;;
71046;SDS011;58703;48.978;8.982;2022-12-22T09:46:15;3.83;;;0.90;;
71046;SDS011;58703;48.978;8.982;2022-12-22T09:48:48;2.65;;;0.55;;
71046;SDS011;58703;48.978;8.982;2022-12-22T09:51:14;3.75;;;0.95;;
71046;SDS011;58703;48.978;8.982;2022-12-22T09:53:42;5.55;;;1.00;;
71046;SDS011;58703;48.978;8.982;2022-12-22T09:56:14;4.20;;;0.70;;
71046;SDS011;58703;48.978;8.982;2022-12-22T09:58:41;5.03;;;1.75;;
71046;SDS011;58703;48.978;8.982;2022-12-22T10:06:41;3.22;;;0.55;;
71046;SDS011;58703;48.978;8.982;2022-12-22T10:09:27;4.30;;;0.90;;
71046;SDS011;58703;48.978;8.982;2022-12-22T10:11:56;2.85;;;0.77;;
71046;SDS011;58703;48.978;8.982;2022-12-22T10:14:24;4.07;;;0.82;;
71046;SDS011;58703;48.978;8.982;2022-12-22T10:19:42;3.75;;;0.70;;
71046;SDS011;58703;48.978;8.982;2022-12-22T10:24:55;3.55;;;2.15;;
71046;SDS011;58703;48.978;8.982;2022-12-22T10:27:22;4.07;;;0.70;;
71046;SDS011;58703;48.978;8.982;2022-12-22T10:29:51;4.75;;;1.60;;
71046;SDS011;58703;48.978;8.982;2022-12-22T10:32:17;6.85;;;0.80;;
71046;SDS011;58703;48.978;8.982;2022-12-22T10:34:58;4.17;;;1.30;;
71046;SDS011;58703;48.978;8.982;2022-12-22T10:37:36;3.42;;;0.20;;
71046;SDS011;58703;48.978;8.982;2022-12-22T10:40:17;5.32;;;0.60;;
71046;SDS011;58703;48.978;8.982;2022-12-22T10:42:50;3.00;;;0.47;;
71046;SDS011;58703;48.978;8.982;2022-12-22T10:45:22;7.10;;;2.13;;
71046;SDS011;58703;48.978;8.982;2022-12-22T10:47:50;2.83;;;0.20;;
71046;SDS011;58703;48.978;8.982;2022-12-22T10:50:18;4.25;;;0.45;;
71046;SDS011;58703;48.978;8.982;2022-12-22T10:52:49;2.58;;;0.50;;
71046;SDS011;58703;48.978;8.982;2022-12-22T10:55:24;2.47;;;0.82;;
71046;SDS011;58703;48.978;8.982;2022-12-22T11:00:35;4.32;;;0.90;;
71046;SDS011;58703;48.978;8.982;2022-12-22T11:03:02;7.32;;;0.95;;
71046;SDS011;58703;48.978;8.982;2022-12-22T11:05:30;4.40;;;0.60;;
71046;SDS011;58703;48.978;8.982;2022-12-22T11:07:56;3.72;;;1.25;;
71046;SDS011;58703;48.978;8.982;2022-12-22T11:10:36;3.95;;;0.60;;
71046;SDS011;58703;48.978;8.982;2022-12-22T11:21:59;4.32;;;0.65;;
71046;SDS011;58703;48.978;8.982;2022-12-22T11:24:22;2.65;;;0.63;;
71046;SDS011;58703;48.978;8.982;2022-12-22T11:27:27;3.13;;;1.03;;
71046;SDS011;58703;48.978;8.982;2022-12-22T11:30:20;8.52;;;3.40;;
71046;SDS011;58703;48.978;8.982;2022-12-22T11:36:03;4.07;;;1.05;;
71046;SDS011;58703;48.978;8.982;2022-12-22T12:02:21;6.85;;;4.70;;
71046;SDS011;58703;48.978;8.982;2022-12-22T12:07:47;5.68;;;0.88;;
71046;SDS011;58703;48.978;8.982;2022-12-22T12:13:11;4.30;;;1.48;;
71046;SDS011;58703;48.978;8.982;2022-12-22T12:15:43;5.78;;;1.08;;
71046;SDS011;58703;48.978;8.982;2022-12-22T12:26:09;5.47;;;2.53;;
71046;SDS011;58703;48.978;8.982;2022-12-22T12:29:00;9.55;;;8.07;;
71046;SDS011;58703;48.978;8.982;2022-12-22T12:31:45;4.50;;;2.38;;
71046;SDS011;58703;48.978;8.982;2022-12-22T12:34:18;4.20;;;0.70;;
71046;SDS011;58703;48.978;8.982;2022-12-22T12:44:40;16.25;;;14.60;;
71046;SDS011;58703;48.978;8.982;2022-12-22T12:57:51;5.03;;;2.33;;
71046;SDS011;58703;48.978;8.982;2022-12-22T13:03:01;5.15;;;2.25;;
71046;SDS011;58703;48.978;8.982;2022-12-22T13:05:30;11.23;;;5.63;;
71046;SDS011;58703;48.978;8.982;2022-12-22T13:23:28;8.60;;;1.60;;
71046;SDS011;58703;48.978;8.982;2022-12-22T13:26:08;6.47;;;1.58;;
71046;SDS011;58703;48.978;8.982;2022-12-22T13:28:39;6.27;;;1.13;;
71046;SDS011;58703;48.978;8.982;2022-12-22T13:31:15;8.80;;;1.33;;
71046;SDS011;58703;48.978;8.982;2022-12-22T13:33:44;6.80;;;1.10;;
71046;SDS011;58703;48.978;8.982;2022-12-22T13:36:16;4.50;;;0.70;;
71046;SDS011;58703;48.978;8.982;2022-12-22T13:38:45;4.05;;;0.95;;
71046;SDS011;58703;48.978;8.982;2022-12-22T13:41:19;10.30;;;2.30;;
71046;SDS011;58703;48.978;8.982;2022-12-22T13:43:48;8.00;;;1.00;;
71046;SDS011;58703;48.978;8.982;2022-12-22T13:46:21;8.85;;;1.10;;
71046;SDS011;58703;48.978;8.982;2022-12-22T13:48:48;7.38;;;1.23;;
71046;SDS011;58703;48.978;8.982;2022-12-22T13:51:18;7.43;;;1.20;;
71046;SDS011;58703;48.978;8.982;2022-12-22T13:53:49;8.05;;;1.10;;
71046;SDS011;58703;48.978;8.982;2022-12-22T13:56:37;10.80;;;2.10;;
71046;SDS011;58703;48.978;8.982;2022-12-22T13:59:10;7.95;;;0.90;;
71046;SDS011;58703;48.978;8.982;2022-12-22T14:01:48;9.10;;;1.30;;
71046;SDS011;58703;48.978;8.982;2022-12-22T14:04:14;6.75;;;1.25;;
71046;SDS011;58703;48.978;8.982;2022-12-22T14:06:40;7.68;;;1.55;;
71046;SDS011;58703;48.978;8.982;2022-12-22T14:09:09;6.50;;;1.10;;
71046;SDS011;58703;48.978;8.982;2022-12-22T14:11:36;10.32;;;1.42;;
71046;SDS011;58703;48.978;8.982;2022-12-22T14:14:06;7.00;;;1.33;;
71046;SDS011;58703;48.978;8.982;2022-12-22T14:16:33;9.80;;;1.63;;
71046;SDS011;58703;48.978;8.982;2022-12-22T14:18:59;9.67;;;1.80;;
71046;SDS011;58703;48.978;8.982;2022-12-22T14:21:25;6.40;;;1.35;;
71046;SDS011;58703;48.978;8.982;2022-12-22T14:23:51;9.48;;;1.60;;
71046;SDS011;58703;48.978;8.982;2022-12-22T14:26:18;10.57;;;1.77;;
71046;SDS011;58703;48.978;8.982;2022-12-22T14:28:51;8.90;;;1.30;;
71046;SDS011;58703;48.978;8.982;2022-12-22T14:31:20;11.52;;;2.45;;
71046;SDS011;58703;48.978;8.982;2022-12-22T14:33:52;10.85;;;2.03;;
71046;SDS011;58703;48.978;8.982;2022-12-22T14:36:24;14.90;;;1.93;;
71046;SDS011;58703;48.978;8.982;2022-12-22T14:41:26;11.98;;;2.03;;
71046;SDS011;58703;48.978;8.982;2022-12-22T14:44:10;6.82;;;1.65;;
71046;SDS011;58703;48.978;8.982;2022-12-22T14:46:38;13.40;;;1.98;;
71046;SDS011;58703;48.978;8.982;2022-12-22T14:49:10;9.40;;;1.40;;
71046;SDS011;58703;48.978;8.982;2022-12-22T14:51:38;12.93;;;1.80;;
71046;SDS011;58703;48.978;8.982;2022-12-22T14:54:04;9.00;;;2.53;;
71046;SDS011;58703;48.978;8.982;2022-12-22T14:56:30;8.15;;;1.25;;
71046;SDS011;58703;48.978;8.982;2022-12-22T14:59:09;5.13;;;0.93;;
71046;SDS011;58703;48.978;8.982;2022-12-22T15:01:58;10.52;;;1.88;;
71046;SDS011;58703;48.978;8.982;2022-12-22T15:04:26;7.50;;;1.10;;
71046;SDS011;58703;48.978;8.982;2022-12-22T15:07:03;11.17;;;1.47;;
71046;SDS011;58703;48.978;8.982;2022-12-22T15:09:31;14.93;;;1.05;;
71046;SDS011;58703;48.978;8.982;2022-12-22T15:12:04;9.82;;;1.83;;
71046;SDS011;58703;48.978;8.982;2022-12-22T15:14:35;10.33;;;1.30;;
71046;SDS011;58703;48.978;8.982;2022-12-22T15:17:02;11.77;;;1.52;;
71046;SDS011;58703;48.978;8.982;2022-12-22T15:19:31;10.32;;;1.13;;
71046;SDS011;58703;48.978;8.982;2022-12-22T15:21:59;11.25;;;1.75;;
71046;SDS011;58703;48.978;8.982;2022-12-22T15:24:25;12.37;;;1.63;;
71046;SDS011;58703;48.978;8.982;2022-12-22T15:26:51;13.07;;;2.10;;
71046;SDS011;58703;48.978;8.982;2022-12-22T15:29:17;11.27;;;1.13;;
71046;SDS011;58703;48.978;8.982;2022-12-22T15:31:42;13.60;;;2.08;;
71046;SDS011;58703;48.978;8.982;2022-12-22T15:34:11;14.35;;;1.70;;
71046;SDS011;58703;48.978;8.982;2022-12-22T15:36:46;11.20;;;1.75;;
71046;SDS011;58703;48.978;8.982;2022-12-22T15:39:12;12.90;;;1.57;;
71046;SDS011;58703;48.978;8.982;2022-12-22T15:41:40;15.95;;;1.90;;
71046;SDS011;58703;48.978;8.982;2022-12-22T15:44:06;14.43;;;2.03;;
71046;SDS011;58703;48.978;8.982;2022-12-22T15:46:31;14.23;;;1.77;;
71046;SDS011;58703;48.978;8.982;2022-12-22T15:48:57;11.27;;;1.60;;
71046;SDS011;58703;48.978;8.982;2022-12-22T15:51:23;9.10;;;1.23;;
71046;SDS011;58703;48.978;8.982;2022-12-22T15:53:52;12.93;;;1.98;;
71046;SDS011;58703;48.978;8.982;2022-12-22T15:56:20;14.03;;;1.70;;
71046;SDS011;58703;48.978;8.982;2022-12-22T15:58:48;11.88;;;2.92;;
71046;SDS011;58703;48.978;8.982;2022-12-22T16:01:14;13.95;;;2.15;;
71046;SDS011;58703;48.978;8.982;2022-12-22T16:03:39;12.37;;;2.53;;
71046;SDS011;58703;48.978;8.982;2022-12-22T16:06:05;10.05;;;3.80;;
71046;SDS011;58703;48.978;8.982;2022-12-22T16:08:37;42.15;;;18.33;;
71046;SDS011;58703;48.978;8.982;2022-12-22T16:11:06;47.65;;;21.52;;
71046;SDS011;58703;48.978;8.982;2022-12-22T16:13:33;35.70;;;15.70;;
71046;SDS011;58703;48.978;8.982;2022-12-22T16:16:01;42.72;;;15.10;;
71046;SDS011;58703;48.978;8.982;2022-12-22T16:18:26;17.30;;;4.07;;
71046;SDS011;58703;48.978;8.982;2022-12-22T16:20:52;16.53;;;3.67;;
71046;SDS011;58703;48.978;8.982;2022-12-22T16:23:19;19.25;;;1.83;;
71046;SDS011;58703;48.978;8.982;2022-12-22T16:25:47;7.78;;;1.23;;
71046;SDS011;58703;48.978;8.982;2022-12-22T16:28:18;11.70;;;1.85;;
71046;SDS011;58703;48.978;8.982;2022-12-22T16:30:45;18.33;;;4.65;;
71046;SDS011;58703;48.978;8.982;2022-12-22T16:33:12;13.20;;;1.85;;
71046;SDS011;58703;48.978;8.982;2022-12-22T16:35:38;16.73;;;2.53;;
71046;SDS011;58703;48.978;8.982;2022-12-22T16:38:04;12.80;;;3.85;;
71046;SDS011;58703;48.978;8.982;2022-12-22T16:40:30;14.43;;;4.13;;
71046;SDS011;58703;48.978;8.982;2022-12-22T16:43:02;13.00;;;1.50;;
71046;SDS011;58703;48.978;8.982;2022-12-22T16:45:33;49.63;;;18.27;;
71046;SDS011;58703;48.978;8.982;2022-12-22T16:48:00;20.58;;;6.60;;
71046;SDS011;58703;48.978;8.982;2022-12-22T16:50:31;23.98;;;6.57;;
71046;SDS011;58703;48.978;8.982;2022-12-22T16:53:01;7.97;;;1.77;;
71046;SDS011;58703;48.978;8.982;2022-12-22T16:55:29;40.20;;;15.63;;
71046;SDS011;58703;48.978;8.982;2022-12-22T16:57:55;99.60;;;41.13;;
71046;SDS011;58703;48.978;8.982;2022-12-22T17:00:22;19.08;;;4.80;;
71046;SDS011;58703;48.978;8.982;2022-12-22T17:02:50;22.95;;;7.63;;
71046;SDS011;58703;48.978;8.982;2022-12-22T17:05:29;26.33;;;9.03;;
71046;SDS011;58703;48.978;8.982;2022-12-22T17:08:00;30.25;;;9.73;;
71046;SDS011;58703;48.978;8.982;2022-12-22T17:10:27;48.20;;;20.70;;